CMA CGM Musca — 2CAC8 — position and weather

sailwx.info

Track history (hours):
 
Tides and Currents Weather Stations Pressure Air Temp Water Temp Dewpoint Dewpoint Depression Visibility Wind Speed Wind Dir Waves Ship Positions

CMA CGM Musca

Last reported at 2014-Dec-22 08:28 UTC. Time now 2014-Dec-22 09:11 UTC.
Position N 01°16' E 103°46'.

Length 347 m; draft 13.7 m.

Type: Ship (hazmat cat A). MMSI: 235070914.

Date/timePositionNaut miles runAvg speedWind from/ knotsBaromVisibWave heightAir tempDewpointWater temp
2014-Dec-22 08:28N 01°16' E 103°46'0 0.0
2014-Dec-22 07:31N 01°16' E 103°46'0 0.1
2014-Dec-22 06:24N 01°16' E 103°46'0 0.0
2014-Dec-22 04:05N 01°16' E 103°46'0 0.0
2014-Dec-22 02:25N 01°16' E 103°46'0 0.0
2014-Dec-22 01:19N 01°16' E 103°46'0 0.0
2014-Dec-21 23:33N 01°16' E 103°46'0 0.0
2014-Dec-21 22:33N 01°16' E 103°46'0 0.0
2014-Dec-21 20:32N 01°16' E 103°46'0 0.0
2014-Dec-21 19:13N 01°16' E 103°46'0 0.0
2014-Dec-21 18:13N 01°16' E 103°46'0 0.0
2014-Dec-21 17:31N 01°16' E 103°46'0 0.0
2014-Dec-21 16:30N 01°16' E 103°46'0 0.0
2014-Dec-21 15:33N 01°16' E 103°46'0 0.0
2014-Dec-21 14:32N 01°16' E 103°46'0 0.0
2014-Dec-21 13:32N 01°16' E 103°46'0 0.0
2014-Dec-21 12:25N 01°16' E 103°46'0 0.0
2014-Dec-21 11:18N 01°16' E 103°46'0 0.0
2014-Dec-21 10:33N 01°16' E 103°46'2 2.1
2014-Dec-21 09:33N 01°15' E 103°47'1 0.5
2014-Dec-21 08:20N 01°14' E 103°47'0 0.1
2014-Dec-21 07:33N 01°14' E 103°47'4 4.4
2014-Dec-21 06:33N 01°14' E 103°43'59 9.8
2014-Dec-21 00:33N 01°38' E 102°49'1312.6
2014-Dec-20 23:29N 01°42' E 102°36'1914.3
2014-Dec-20 22:12N 01°51' E 102°20'  
Track history (hours):
 
Tides and Currents Weather Stations Pressure Air Temp Water Temp Dewpoint Dewpoint Depression Visibility Wind Speed Wind Dir Waves Ship Positions

CMA CGM Musca

Last reported at 2014-Dec-22 08:28 UTC. Time now 2014-Dec-22 09:11 UTC.
Position N 01°16' E 103°46'.

Length 347 m; draft 13.7 m.

Type: Ship (hazmat cat A). MMSI: 235070914.

Date/timePositionNaut miles runAvg speedWind from/ knotsBaromVisibWave heightAir tempDewpointWater temp
2014-Dec-22 08:28N 01°16' E 103°46'0 0.0
2014-Dec-22 07:31N 01°16' E 103°46'0 0.1
2014-Dec-22 06:24N 01°16' E 103°46'0 0.0
2014-Dec-22 04:05N 01°16' E 103°46'0 0.0
2014-Dec-22 02:25N 01°16' E 103°46'0 0.0
2014-Dec-22 01:19N 01°16' E 103°46'0 0.0
2014-Dec-21 23:33N 01°16' E 103°46'0 0.0
2014-Dec-21 22:33N 01°16' E 103°46'0 0.0
2014-Dec-21 20:32N 01°16' E 103°46'0 0.0
2014-Dec-21 19:13N 01°16' E 103°46'0 0.0
2014-Dec-21 18:13N 01°16' E 103°46'0 0.0
2014-Dec-21 17:31N 01°16' E 103°46'0 0.0
2014-Dec-21 16:30N 01°16' E 103°46'0 0.0
2014-Dec-21 15:33N 01°16' E 103°46'0 0.0
2014-Dec-21 14:32N 01°16' E 103°46'0 0.0
2014-Dec-21 13:32N 01°16' E 103°46'0 0.0
2014-Dec-21 12:25N 01°16' E 103°46'0 0.0
2014-Dec-21 11:18N 01°16' E 103°46'0 0.0
2014-Dec-21 10:33N 01°16' E 103°46'2 2.1
2014-Dec-21 09:33N 01°15' E 103°47'1 0.5
2014-Dec-21 08:20N 01°14' E 103°47'0 0.1
2014-Dec-21 07:33N 01°14' E 103°47'4 4.4
2014-Dec-21 06:33N 01°14' E 103°43'59 9.8
2014-Dec-21 00:33N 01°38' E 102°49'1312.6
2014-Dec-20 23:29N 01°42' E 102°36'1914.3
2014-Dec-20 22:12N 01°51' E 102°20'  

Dump ship's entire track history